createdAt,value
2023-03-18T00:02:30.197Z,20.05
2023-03-18T00:05:10.145Z,19.40
2023-03-18T00:08:04.116Z,17.13
2023-03-18T00:10:51.161Z,18.38
2023-03-18T00:13:31.206Z,14.45
2023-03-18T00:16:26.161Z,14.55
2023-03-18T00:19:20.163Z,15.27
2023-03-18T00:22:15.125Z,16.20
2023-03-18T00:25:02.144Z,15.27
2023-03-18T00:27:42.110Z,14.40
2023-03-18T00:30:29.285Z,16.17
2023-03-18T00:33:03.356Z,16.92
2023-03-18T00:35:54.144Z,13.85
2023-03-18T00:38:34.152Z,16.90
2023-03-18T00:41:28.153Z,18.58
2023-03-18T00:44:15.150Z,18.20
2023-03-18T00:46:55.216Z,18.33
2023-03-18T00:49:42.145Z,19.50
2023-03-18T00:52:15.271Z,19.23
2023-03-18T00:55:02.173Z,19.70
2023-03-18T00:57:37.305Z,18.25
2023-03-18T01:00:25.162Z,19.00
2023-03-18T01:02:59.453Z,19.20
2023-03-18T01:05:46.138Z,17.75
2023-03-18T01:08:19.321Z,18.27
2023-03-18T01:11:06.204Z,19.75
2023-03-18T01:13:41.259Z,18.30
2023-03-18T01:16:30.303Z,19.35
2023-03-18T01:19:04.462Z,20.65
2023-03-18T01:21:51.133Z,21.67
2023-03-18T01:24:31.163Z,20.38
2023-03-18T01:27:18.132Z,21.13
2023-03-18T01:29:51.858Z,21.40
2023-03-18T01:32:38.224Z,21.40
2023-03-18T01:35:12.481Z,21.00
2023-03-18T01:40:33.547Z,21.33
2023-03-18T01:43:23.159Z,21.92
2023-03-18T01:46:06.162Z,20.83
2023-03-18T01:48:53.173Z,18.45
2023-03-18T01:51:27.280Z,20.75
2023-03-18T01:54:15.157Z,20.98
2023-03-18T01:56:58.157Z,21.02
2023-03-18T01:59:55.186Z,21.23
2023-03-18T02:02:42.149Z,20.55
2023-03-18T02:05:18.275Z,21.55
2023-03-18T02:08:05.166Z,21.02
2023-03-18T02:10:39.729Z,21.45
2023-03-18T02:13:26.187Z,18.92
2023-03-18T02:16:04.271Z,20.48
2023-03-18T02:18:58.152Z,19.45
2023-03-18T02:22:06.309Z,19.15
2023-03-18T02:25:15.183Z,20.95
2023-03-18T02:28:02.202Z,18.67
2023-03-18T02:31:02.322Z,19.60
2023-03-18T02:33:50.143Z,18.42
2023-03-18T02:36:30.272Z,18.30
2023-03-18T02:39:22.164Z,19.52
2023-03-18T02:41:55.313Z,20.65
2023-03-18T02:44:47.188Z,20.02
2023-03-18T02:47:27.348Z,19.38
2023-03-18T02:50:14.182Z,19.65
2023-03-18T02:52:54.173Z,18.85
2023-03-18T02:55:48.175Z,16.88
2023-03-18T02:58:35.224Z,18.15
2023-03-18T03:01:15.261Z,16.90
2023-03-18T03:04:03.187Z,19.08
2023-03-18T03:06:58.200Z,16.27
2023-03-18T03:09:45.187Z,17.23
2023-03-18T03:12:18.268Z,17.15
2023-03-18T03:15:05.171Z,17.25
2023-03-18T03:17:38.296Z,15.00
2023-03-18T03:20:25.201Z,15.77
2023-03-18T03:22:58.376Z,16.52
2023-03-18T03:25:45.170Z,16.52
2023-03-18T03:28:27.211Z,16.35
2023-03-18T03:31:21.228Z,16.55
2023-03-18T03:34:09.182Z,16.42
2023-03-18T03:36:50.195Z,15.65
2023-03-18T03:39:37.211Z,16.38
2023-03-18T03:42:17.202Z,16.98
2023-03-18T03:45:12.181Z,17.25
2023-03-18T03:48:06.184Z,17.40
2023-03-18T03:50:54.187Z,16.67
2023-03-18T03:53:34.213Z,16.42
2023-03-18T03:56:28.195Z,16.95
2023-03-18T03:59:17.194Z,18.98
2023-03-18T04:01:57.200Z,17.00
2023-03-18T04:04:52.195Z,15.45
2023-03-18T04:07:39.202Z,16.35
2023-03-18T04:10:20.186Z,15.77
2023-03-18T04:13:07.292Z,17.23
2023-03-18T04:15:41.280Z,17.70
2023-03-18T04:18:28.210Z,16.23
2023-03-18T04:21:01.859Z,17.00
2023-03-18T04:23:48.182Z,15.57
2023-03-18T04:26:21.291Z,15.25
2023-03-18T04:29:08.183Z,15.55
2023-03-18T04:31:41.727Z,14.75
2023-03-18T04:34:29.203Z,17.35
2023-03-18T04:37:02.386Z,16.15
2023-03-18T04:39:49.204Z,17.65
2023-03-18T04:42:23.342Z,15.70
2023-03-18T04:45:12.231Z,16.80
2023-03-18T04:47:45.586Z,14.88
2023-03-18T04:50:32.466Z,16.30
2023-03-18T04:53:05.337Z,15.65
2023-03-18T04:55:52.255Z,16.90
2023-03-18T04:58:25.290Z,17.45
2023-03-18T05:01:12.235Z,18.55
2023-03-18T05:03:46.329Z,16.90
2023-03-18T05:06:42.195Z,17.92
2023-03-18T05:09:36.218Z,17.67
2023-03-18T05:12:23.204Z,17.10
2023-03-18T05:15:03.237Z,16.52
2023-03-18T05:17:57.249Z,16.77
2023-03-18T05:20:44.208Z,17.90
2023-03-18T05:23:17.451Z,20.23
2023-03-18T05:26:04.214Z,20.08
2023-03-18T05:28:39.214Z,17.42
2023-03-18T05:31:26.259Z,17.65
2023-03-18T05:34:00.409Z,20.98
2023-03-18T05:36:47.237Z,21.23
2023-03-18T05:39:20.353Z,22.23
2023-03-18T05:42:07.202Z,22.23
2023-03-18T05:44:40.512Z,24.77
2023-03-18T05:47:27.238Z,21.17
2023-03-18T05:50:01.656Z,21.27
2023-03-18T05:52:48.233Z,19.15
2023-03-18T05:55:23.452Z,16.95
2023-03-18T05:58:10.306Z,16.70
2023-03-18T06:00:51.211Z,17.40
2023-03-18T06:03:45.321Z,16.13
2023-03-18T06:06:33.219Z,14.93
2023-03-18T06:09:07.045Z,13.85
2023-03-18T06:11:54.238Z,12.68
2023-03-18T06:14:36.227Z,14.45
2023-03-18T06:17:23.281Z,13.32
2023-03-18T06:19:57.001Z,15.07
2023-03-18T06:22:43.233Z,14.82
2023-03-18T06:25:23.261Z,15.13
2023-03-18T06:28:10.235Z,16.55
2023-03-18T06:30:43.344Z,16.73
2023-03-18T06:33:32.226Z,18.02
2023-03-18T06:36:12.296Z,16.63
2023-03-18T06:39:00.273Z,15.07
2023-03-18T06:41:40.260Z,13.65
2023-03-18T06:44:35.273Z,13.60
2023-03-18T06:47:22.239Z,11.57
2023-03-18T06:49:56.880Z,11.82
2023-03-18T06:52:44.246Z,13.38
2023-03-18T06:55:24.255Z,13.30
2023-03-18T06:58:12.261Z,12.05
2023-03-18T07:00:47.776Z,13.57
2023-03-18T07:03:34.247Z,12.50
2023-03-18T07:06:14.236Z,13.30
2023-03-18T07:09:08.292Z,11.00
2023-03-18T07:11:55.278Z,12.27
2023-03-18T07:14:28.750Z,11.82
2023-03-18T07:17:17.256Z,13.20
2023-03-18T07:19:50.342Z,12.93
2023-03-18T07:22:37.284Z,11.43
2023-03-18T07:25:11.465Z,13.85
2023-03-18T07:27:58.264Z,13.10
2023-03-18T07:30:31.337Z,13.50
2023-03-18T07:33:18.245Z,13.00
2023-03-18T07:35:51.445Z,11.93
2023-03-18T07:38:38.271Z,13.95
2023-03-18T07:41:18.287Z,13.40
2023-03-18T07:44:12.267Z,12.30
2023-03-18T07:46:59.275Z,12.70
2023-03-18T07:49:32.385Z,12.20
2023-03-18T07:52:19.281Z,13.10
2023-03-18T07:54:52.528Z,13.05
2023-03-18T07:57:39.299Z,12.35
2023-03-18T08:00:14.399Z,12.70
2023-03-18T08:03:02.276Z,12.13
2023-03-18T08:05:35.454Z,13.23
2023-03-18T08:08:22.273Z,11.88
2023-03-18T08:10:55.366Z,10.75
2023-03-18T08:13:44.305Z,11.10
2023-03-18T08:16:18.620Z,12.50
2023-03-18T08:19:05.296Z,12.32
2023-03-18T08:21:38.507Z,11.85
2023-03-18T08:24:25.274Z,12.40
2023-03-18T08:26:58.426Z,12.75
2023-03-18T08:29:45.286Z,15.23
2023-03-18T08:32:21.980Z,12.38
2023-03-18T08:35:09.284Z,11.63
2023-03-18T08:37:42.690Z,12.60
2023-03-18T08:40:29.304Z,13.23
2023-03-18T08:43:02.374Z,14.75
2023-03-18T08:45:49.347Z,12.38
2023-03-18T08:48:29.288Z,11.65
2023-03-18T08:51:23.292Z,10.73
2023-03-18T08:54:10.322Z,9.45
2023-03-18T08:56:43.463Z,10.15
2023-03-18T08:59:30.320Z,10.50
2023-03-18T09:02:03.609Z,10.82
2023-03-18T09:04:57.327Z,9.90
2023-03-18T09:07:52.308Z,10.30
2023-03-18T09:10:40.312Z,10.90
2023-03-18T09:13:21.302Z,9.77
2023-03-18T09:16:08.386Z,10.85
2023-03-18T09:18:48.943Z,11.40
2023-03-18T09:21:42.319Z,10.50
2023-03-18T09:24:36.325Z,11.05
2023-03-18T09:27:30.325Z,11.15
2023-03-18T09:30:24.325Z,11.05
2023-03-18T09:33:13.361Z,10.32
2023-03-18T09:35:46.449Z,10.93
2023-03-18T09:38:33.329Z,11.75
2023-03-18T09:41:51.464Z,11.90
2023-03-18T09:44:43.324Z,12.20
2023-03-18T09:47:38.429Z,11.60
2023-03-18T09:50:50.344Z,10.63
2023-03-18T09:53:40.362Z,9.48
2023-03-18T09:56:52.346Z,11.65
2023-03-18T09:59:50.316Z,11.85
2023-03-18T10:02:49.469Z,10.98
2023-03-18T10:05:55.324Z,12.45
2023-03-18T10:09:13.331Z,10.73
2023-03-18T10:12:14.368Z,15.00
2023-03-18T10:14:53.465Z,14.48
2023-03-18T10:18:15.364Z,12.02
2023-03-18T10:21:10.535Z,13.27
2023-03-18T10:24:24.344Z,14.25
2023-03-18T10:27:12.471Z,16.15
2023-03-18T10:30:10.351Z,15.25
2023-03-18T10:33:05.395Z,13.07
2023-03-18T10:36:11.384Z,16.08
2023-03-18T10:39:01.346Z,14.40
2023-03-18T10:41:51.346Z,14.75
2023-03-18T10:44:45.316Z,14.30
2023-03-18T10:47:30.507Z,15.93
2023-03-18T10:50:30.667Z,14.48
2023-03-18T10:53:30.275Z,14.02
2023-03-18T10:56:19.364Z,13.63
2023-03-18T10:58:53.701Z,14.82
2023-03-18T11:01:43.438Z,15.05
2023-03-18T11:04:29.358Z,14.98
2023-03-18T11:07:31.368Z,15.05
2023-03-18T11:10:24.387Z,15.13
2023-03-18T11:13:02.369Z,21.33
2023-03-18T11:15:59.463Z,18.90
2023-03-18T11:18:42.365Z,16.45
2023-03-18T11:21:38.376Z,14.30
2023-03-18T11:24:42.408Z,13.30
2023-03-18T11:27:21.471Z,15.10
2023-03-18T11:30:34.849Z,15.65
2023-03-18T11:33:30.493Z,16.13
2023-03-18T11:36:27.405Z,15.35
2023-03-18T11:39:23.765Z,16.73
2023-03-18T11:42:24.420Z,16.95
2023-03-18T11:45:01.563Z,16.75
2023-03-18T11:47:50.388Z,14.70
2023-03-18T11:50:34.652Z,16.50
2023-03-18T11:53:55.386Z,13.80
2023-03-18T11:56:49.498Z,14.35
2023-03-18T11:59:36.374Z,14.50
2023-03-18T12:02:37.501Z,14.93
2023-03-18T12:06:00.365Z,16.08
2023-03-18T12:09:04.410Z,12.77
2023-03-18T12:12:03.387Z,13.65
2023-03-18T12:15:04.564Z,14.23
2023-03-18T12:18:13.399Z,14.82
2023-03-18T12:20:52.654Z,14.90
2023-03-18T12:23:45.396Z,14.73
2023-03-18T12:26:48.414Z,15.65
2023-03-18T12:29:54.411Z,15.93
2023-03-18T12:32:49.450Z,18.90
2023-03-18T12:35:58.751Z,19.80
2023-03-18T12:38:51.403Z,17.02
2023-03-18T12:41:30.942Z,18.50
2023-03-18T12:44:32.416Z,15.35
2023-03-18T12:47:25.478Z,14.15
2023-03-18T12:50:41.420Z,14.48
2023-03-18T12:53:40.433Z,15.98
2023-03-18T12:56:23.529Z,16.52
2023-03-18T12:59:19.480Z,16.35
2023-03-18T13:02:23.697Z,15.70
2023-03-18T13:05:27.425Z,14.98
2023-03-18T13:08:23.472Z,14.27
2023-03-18T13:11:42.408Z,13.82
2023-03-18T13:14:47.487Z,14.63
2023-03-18T13:17:36.428Z,15.15
2023-03-18T13:20:30.591Z,13.93
2023-03-18T13:23:39.474Z,14.00
2023-03-18T13:26:33.480Z,14.07
2023-03-18T13:29:42.980Z,13.90
2023-03-18T13:32:30.570Z,12.27
2023-03-18T13:36:03.519Z,13.25
2023-03-18T13:39:25.477Z,14.57
2023-03-18T13:42:36.420Z,14.98
2023-03-18T13:45:37.477Z,12.23
2023-03-18T13:48:51.564Z,15.70
2023-03-18T13:51:38.439Z,16.95
2023-03-18T13:54:26.446Z,21.08
2023-03-18T13:57:30.429Z,17.23
2023-03-18T14:00:35.481Z,17.25
2023-03-18T14:03:29.492Z,18.48
2023-03-18T14:06:23.471Z,12.02
2023-03-18T14:10:18.377Z,14.80
2023-03-18T14:13:41.474Z,12.40
2023-03-18T14:16:38.427Z,14.65
2023-03-18T14:19:41.475Z,13.73
2023-03-18T14:22:35.476Z,13.50
2023-03-18T14:25:37.288Z,13.43
2023-03-18T14:28:27.479Z,13.05
2023-03-18T14:31:19.642Z,12.00
2023-03-18T14:34:10.446Z,12.10
2023-03-18T14:36:59.480Z,11.75
2023-03-18T14:39:59.483Z,11.45
2023-03-18T14:43:07.478Z,11.48
2023-03-18T14:45:55.478Z,11.10
2023-03-18T14:48:49.479Z,11.98
2023-03-18T14:51:38.496Z,13.02
2023-03-18T14:54:18.603Z,11.95
2023-03-18T14:57:10.527Z,10.73
2023-03-18T14:59:45.668Z,12.27
2023-03-18T15:02:40.537Z,11.90
2023-03-18T15:05:14.695Z,11.13
2023-03-18T15:08:01.482Z,12.63
2023-03-18T15:10:44.515Z,11.85
2023-03-18T15:13:39.578Z,12.85
2023-03-18T15:16:26.559Z,12.88
2023-03-18T15:19:01.610Z,13.00
2023-03-18T15:21:48.514Z,11.23
2023-03-18T15:24:26.929Z,12.77
2023-03-18T15:27:21.492Z,13.07
2023-03-18T15:30:04.505Z,12.05
2023-03-18T15:32:58.577Z,12.20
2023-03-18T15:35:32.983Z,12.93
2023-03-18T15:38:24.522Z,11.23
2023-03-18T15:41:05.667Z,11.80
2023-03-18T15:43:55.501Z,13.18
2023-03-18T15:46:36.600Z,13.25
2023-03-18T15:49:27.506Z,11.48
2023-03-18T15:52:15.503Z,22.95
2023-03-18T15:55:09.507Z,12.43
2023-03-18T15:58:07.538Z,13.20
2023-03-18T16:01:01.564Z,13.02
2023-03-18T16:03:49.512Z,13.23
2023-03-18T16:06:22.906Z,14.48
2023-03-18T16:09:27.506Z,14.30
2023-03-18T16:12:12.570Z,14.05
2023-03-18T16:15:07.572Z,14.18
2023-03-18T16:17:55.526Z,13.75
2023-03-18T16:20:39.497Z,13.70
2023-03-18T16:23:33.510Z,12.98
2023-03-18T16:26:29.499Z,14.63
2023-03-18T16:29:34.588Z,13.15
2023-03-18T16:32:24.568Z,14.20
2023-03-18T16:35:04.565Z,12.95
2023-03-18T16:37:59.512Z,12.65
2023-03-18T16:40:46.554Z,15.18
2023-03-18T16:43:38.702Z,16.42
2023-03-18T16:46:30.633Z,15.05
2023-03-18T16:49:03.693Z,16.13
2023-03-18T16:51:51.518Z,13.77
2023-03-18T16:54:33.607Z,14.50
2023-03-18T16:57:33.522Z,15.75
2023-03-18T17:00:44.605Z,18.90
2023-03-18T17:03:18.660Z,21.30
2023-03-18T17:06:13.518Z,17.80
2023-03-18T17:09:07.521Z,21.08
2023-03-18T17:12:00.579Z,17.80
2023-03-18T17:14:41.683Z,21.38
2023-03-18T17:17:34.563Z,17.40
2023-03-18T17:20:11.462Z,18.60
2023-03-18T17:22:58.574Z,16.63
2023-03-18T17:25:41.597Z,17.50
2023-03-18T17:28:38.557Z,17.98
2023-03-18T17:31:12.696Z,17.50
2023-03-18T17:33:59.588Z,18.98
2023-03-18T17:36:39.588Z,20.20
2023-03-18T17:39:26.644Z,17.98
2023-03-18T17:42:01.349Z,17.58
2023-03-18T17:44:48.608Z,16.70
2023-03-18T17:47:21.684Z,17.17
2023-03-18T17:50:08.565Z,17.83
2023-03-18T17:52:51.402Z,17.08
2023-03-18T17:55:45.583Z,18.30
2023-03-18T17:58:34.607Z,17.40
2023-03-18T18:01:19.751Z,16.13
2023-03-18T18:04:06.556Z,20.45
2023-03-18T18:06:39.677Z,21.90
2023-03-18T18:09:27.584Z,23.15
2023-03-18T18:12:00.698Z,24.25
2023-03-18T18:14:50.569Z,19.92
2023-03-18T18:17:31.578Z,20.58
2023-03-18T18:20:23.583Z,19.67
2023-03-18T18:23:03.121Z,18.60
2023-03-18T18:25:49.583Z,16.05
2023-03-18T18:28:29.365Z,16.35
2023-03-18T18:31:19.768Z,18.40
2023-03-18T18:34:02.619Z,17.55
2023-03-18T18:36:49.595Z,19.85
2023-03-18T18:39:23.833Z,20.52
2023-03-18T18:42:10.599Z,21.83
2023-03-18T18:44:51.584Z,22.77
2023-03-18T18:47:42.615Z,25.05
2023-03-18T18:50:24.202Z,26.90
2023-03-18T18:53:21.578Z,24.88
2023-03-18T18:55:54.737Z,28.13
2023-03-18T18:58:43.646Z,26.45
2023-03-18T19:01:18.708Z,27.23
2023-03-18T19:04:05.693Z,28.95
2023-03-18T19:06:39.709Z,26.92
2023-03-18T19:09:30.611Z,27.55
2023-03-18T19:12:04.693Z,28.50
2023-03-18T19:14:53.594Z,28.02
2023-03-18T19:17:29.677Z,25.40
2023-03-18T19:20:37.590Z,26.58
2023-03-18T19:23:22.630Z,26.88
2023-03-18T19:26:12.625Z,27.15
2023-03-18T19:28:57.570Z,26.27
2023-03-18T19:31:47.657Z,26.27
2023-03-18T19:34:33.628Z,25.65
2023-03-18T19:37:36.625Z,25.52
2023-03-18T19:40:31.642Z,22.17
2023-03-18T19:43:04.726Z,22.70
2023-03-18T19:45:55.656Z,22.67
2023-03-18T19:48:39.659Z,23.40
2023-03-18T19:51:35.627Z,22.58
2023-03-18T19:54:43.633Z,24.20
2023-03-18T19:57:32.641Z,23.30
2023-03-18T20:00:31.605Z,24.50
2023-03-18T20:03:05.692Z,24.05
2023-03-18T20:05:53.640Z,21.98
2023-03-18T20:08:27.689Z,23.38
2023-03-18T20:11:18.678Z,23.95
2023-03-18T20:13:51.913Z,24.63
2023-03-18T20:16:38.670Z,23.90
2023-03-18T20:19:11.693Z,26.05
2023-03-18T20:21:58.633Z,24.70
2023-03-18T20:24:35.724Z,27.05
2023-03-18T20:27:23.647Z,25.73
2023-03-18T20:29:56.783Z,25.38
2023-03-18T20:32:44.677Z,23.48
2023-03-18T20:35:18.648Z,24.42
2023-03-18T20:38:10.668Z,24.73
2023-03-18T20:40:55.676Z,23.48
2023-03-18T20:43:43.649Z,22.60
2023-03-18T20:46:27.719Z,24.98
2023-03-18T20:49:14.640Z,23.88
2023-03-18T20:51:54.635Z,22.65
2023-03-18T20:54:41.701Z,22.25
2023-03-18T20:57:19.241Z,22.63
2023-03-18T21:00:05.647Z,21.90
2023-03-18T21:02:42.640Z,20.83
2023-03-18T21:05:30.978Z,22.92
2023-03-18T21:08:04.741Z,20.17
2023-03-18T21:10:51.702Z,22.00
2023-03-18T21:13:36.144Z,21.58
2023-03-18T21:16:23.677Z,19.63
2023-03-18T21:18:57.721Z,21.40
2023-03-18T21:21:45.671Z,22.50
2023-03-18T21:24:33.769Z,22.85
2023-03-18T21:27:28.630Z,23.45
2023-03-18T21:30:02.994Z,23.10
2023-03-18T21:32:51.929Z,26.60
2023-03-18T21:35:32.206Z,22.80
2023-03-18T21:38:19.645Z,22.30
2023-03-18T21:40:53.133Z,22.90
2023-03-18T21:43:41.681Z,23.15
2023-03-18T21:46:19.836Z,22.80
2023-03-18T21:49:06.639Z,22.42
2023-03-18T21:51:40.502Z,22.13
2023-03-18T21:54:28.650Z,24.40
2023-03-18T21:57:01.785Z,24.77
2023-03-18T21:59:48.693Z,24.23
2023-03-18T22:02:30.787Z,24.40
2023-03-18T22:05:24.717Z,24.25
2023-03-18T22:08:05.709Z,26.70
2023-03-18T22:10:53.732Z,26.77
2023-03-18T22:13:33.602Z,25.85
2023-03-18T22:16:23.725Z,26.95
2023-03-18T22:18:56.841Z,26.33
2023-03-18T22:21:43.746Z,25.42
2023-03-18T22:24:20.786Z,25.65
2023-03-18T22:27:07.702Z,26.92
2023-03-18T22:29:40.776Z,32.70
2023-03-18T22:32:48.688Z,31.40
2023-03-18T22:35:27.948Z,28.23
2023-03-18T22:38:20.642Z,28.05
2023-03-18T22:41:03.698Z,26.95
2023-03-18T22:43:50.690Z,24.27
2023-03-18T22:46:30.696Z,24.02
2023-03-18T22:49:24.653Z,21.58
2023-03-18T22:52:11.695Z,23.52
2023-03-18T22:54:51.733Z,23.23
2023-03-18T22:57:45.708Z,23.13
2023-03-18T23:00:43.711Z,24.23
2023-03-18T23:03:37.699Z,22.75
2023-03-18T23:06:33.800Z,23.58
2023-03-18T23:09:30.372Z,21.85
2023-03-18T23:12:18.685Z,22.90
2023-03-18T23:14:52.699Z,22.05
2023-03-18T23:17:39.693Z,20.17
2023-03-18T23:20:19.694Z,20.50
2023-03-18T23:23:06.709Z,20.48
2023-03-18T23:25:39.822Z,19.48
2023-03-18T23:28:26.671Z,19.90
2023-03-18T23:30:59.957Z,20.58
2023-03-18T23:33:46.663Z,19.90
2023-03-18T23:36:26.646Z,18.63
2023-03-18T23:39:20.689Z,18.75
2023-03-18T23:42:07.734Z,19.50
2023-03-18T23:44:47.739Z,18.48
2023-03-18T23:47:41.707Z,18.63
2023-03-18T23:50:28.683Z,19.08
2023-03-18T23:53:02.339Z,19.00
2023-03-18T23:55:48.890Z,18.92
2023-03-18T23:58:22.859Z,18.27
